Xiamen, Fujian

10:42 AM CST on July 27, 2016 (GMT +0800)
Gaoqi | | Change Station

Elev 59 ft 24.54 °N, 118.14 °E | Updated 42 minutes ago

Clear
Clear
93 °F
Feels Like 110 °F
N
4
Wind Variable Wind from SW

Today
High -- | Low -- °F
--% Chance of Precip.
Yesterday
High -- | Low -- °F
Precip. -- in
Pressure 29.77 in
Visibility -9999.0 miles
Clouds
Heat Index 110 °F
Dew Point 79 °F
Humidity 63%
Rainfall 0.00 in
Snow Depth Not available.
5:33 AM 6:54 PM
Waning Gibbous, 48% visible
METAR ZSAM 270200Z 22002MPS 150V270 CAVOK 34/26 Q1008 NOSIG
Pressure 29.77 in
Visibility -9999.0 miles
Clouds
Heat Index 110 °F
Dew Point 79 °F
Humidity 63%
Rainfall 0.00 in
Snow Depth Not available.
5:33 AM 6:54 PM
Waning Gibbous, 48% visible
METAR ZSAM 270200Z 22002MPS 150V270 CAVOK 34/26 Q1008 NOSIG

10-Day Weather Forecast

No radar image for this location.
×

Almanac

Astronomy

Jul. 27, 2016 Rise Set
Actual Time
Civil Twilight
Nautical Twilight
Astronomical Twilight
Moon
Length of Visible Light
Length of Day
Tomorrow will be .
, % of the Moon is Illuminated

Today's Extremes

Country Highs Country Lows

Community

WunderPhotos

Upload Photos

1,927,784 photos uploaded!

WunderBlog® & News

Nearby

Air Quality

  Air Quality AQ Index Pollutant
Not available.

Snow Depth

Station Depth Elevation

Earthquake Activity

City Distance Mag. Time & Date
Minimum magnitude displayed is 2.5.

Coastal Water Temperatures

Place Temperature

Stations

Nearby Weather Stations

Station Location Temp. Windchill Dew Point Humidity Wind Precip. Elev Updated Type